sensor_id;sensor_type;location;lat;lon;timestamp;noise_LAeq;noise_LA_min;noise_LA_max;noise_LA01;noise_LA95
41518;Laerm;27249;48.094;-1.690;2023-03-01T00:01:44;50.21;40.23;62.88;;
41518;Laerm;27249;48.094;-1.690;2023-03-01T00:04:10;49.86;39.70;61.75;;
41518;Laerm;27249;48.094;-1.690;2023-03-01T00:06:35;48.43;39.81;61.90;;
41518;Laerm;27249;48.094;-1.690;2023-03-01T00:09:00;42.85;40.18;45.14;;
41518;Laerm;27249;48.094;-1.690;2023-03-01T00:11:29;44.78;40.98;55.29;;
41518;Laerm;27249;48.094;-1.690;2023-03-01T00:13:57;45.64;40.71;60.08;;
41518;Laerm;27249;48.094;-1.690;2023-03-01T00:16:24;48.93;40.53;63.88;;
41518;Laerm;27249;48.094;-1.690;2023-03-01T00:18:50;46.47;40.53;57.13;;
41518;Laerm;27249;48.094;-1.690;2023-03-01T00:21:15;52.93;39.81;64.86;;
41518;Laerm;27249;48.094;-1.690;2023-03-01T00:23:41;43.18;39.70;54.29;;
41518;Laerm;27249;48.094;-1.690;2023-03-01T00:26:07;46.43;39.81;57.92;;
41518;Laerm;27249;48.094;-1.690;2023-03-01T00:28:33;42.71;40.13;50.05;;
41518;Laerm;27249;48.094;-1.690;2023-03-01T00:31:06;46.34;40.43;59.71;;
41518;Laerm;27249;48.094;-1.690;2023-03-01T00:33:31;48.16;40.13;64.11;;
41518;Laerm;27249;48.094;-1.690;2023-03-01T00:36:00;45.53;40.71;59.49;;
41518;Laerm;27249;48.094;-1.690;2023-03-01T00:38:25;43.16;40.33;59.87;;
41518;Laerm;27249;48.094;-1.690;2023-03-01T00:40:51;49.11;40.13;64.79;;
41518;Laerm;27249;48.094;-1.690;2023-03-01T00:43:17;42.86;39.81;48.02;;
41518;Laerm;27249;48.094;-1.690;2023-03-01T00:45:42;43.03;39.92;50.19;;
41518;Laerm;27249;48.094;-1.690;2023-03-01T00:48:07;44.95;39.78;59.60;;
41518;Laerm;27249;48.094;-1.690;2023-03-01T00:50:32;45.94;39.70;60.66;;
41518;Laerm;27249;48.094;-1.690;2023-03-01T00:52:58;45.13;40.13;55.76;;
41518;Laerm;27249;48.094;-1.690;2023-03-01T00:55:23;46.05;39.81;58.21;;
41518;Laerm;27249;48.094;-1.690;2023-03-01T00:57:48;47.65;40.71;57.93;;
41518;Laerm;27249;48.094;-1.690;2023-03-01T01:00:14;43.98;40.43;54.04;;
41518;Laerm;27249;48.094;-1.690;2023-03-01T01:02:39;52.05;39.92;65.04;;
41518;Laerm;27249;48.094;-1.690;2023-03-01T01:05:05;42.59;39.21;48.58;;
41518;Laerm;27249;48.094;-1.690;2023-03-01T01:07:30;42.34;38.95;44.65;;
41518;Laerm;27249;48.094;-1.690;2023-03-01T01:09:55;42.36;38.52;46.10;;
41518;Laerm;27249;48.094;-1.690;2023-03-01T01:12:21;46.34;39.70;62.99;;
41518;Laerm;27249;48.094;-1.690;2023-03-01T01:14:46;44.32;39.46;62.03;;
41518;Laerm;27249;48.094;-1.690;2023-03-01T01:17:11;45.06;39.46;62.23;;
41518;Laerm;27249;48.094;-1.690;2023-03-01T01:19:36;47.34;39.81;64.76;;
41518;Laerm;27249;48.094;-1.690;2023-03-01T01:22:02;47.56;39.70;67.17;;
41518;Laerm;27249;48.094;-1.690;2023-03-01T01:24:28;43.13;40.71;44.90;;
41518;Laerm;27249;48.094;-1.690;2023-03-01T01:26:53;43.17;40.08;45.39;;
41518;Laerm;27249;48.094;-1.690;2023-03-01T01:29:18;45.99;40.13;61.20;;
41518;Laerm;27249;48.094;-1.690;2023-03-01T01:31:44;50.94;40.03;62.89;;
41518;Laerm;27249;48.094;-1.690;2023-03-01T01:34:12;42.33;39.34;57.21;;
41518;Laerm;27249;48.094;-1.690;2023-03-01T01:36:38;42.50;39.46;46.78;;
41518;Laerm;27249;48.094;-1.690;2023-03-01T01:39:03;42.56;39.92;53.07;;
41518;Laerm;27249;48.094;-1.690;2023-03-01T01:41:29;51.54;40.03;69.55;;
41518;Laerm;27249;48.094;-1.690;2023-03-01T01:46:40;43.70;40.13;51.63;;
41518;Laerm;27249;48.094;-1.690;2023-03-01T01:51:38;46.31;40.62;57.61;;
41518;Laerm;27249;48.094;-1.690;2023-03-01T01:54:24;43.06;40.62;50.13;;
41518;Laerm;27249;48.094;-1.690;2023-03-01T01:56:53;49.40;39.92;62.12;;
41518;Laerm;27249;48.094;-1.690;2023-03-01T01:59:19;45.56;39.34;58.57;;
41518;Laerm;27249;48.094;-1.690;2023-03-01T02:01:49;47.07;39.70;62.17;;
41518;Laerm;27249;48.094;-1.690;2023-03-01T02:04:14;42.94;38.95;68.40;;
41518;Laerm;27249;48.094;-1.690;2023-03-01T02:06:41;42.96;39.81;50.79;;
41518;Laerm;27249;48.094;-1.690;2023-03-01T02:09:11;46.98;40.53;57.15;;
41518;Laerm;27249;48.094;-1.690;2023-03-01T02:11:37;48.37;39.81;59.97;;
41518;Laerm;27249;48.094;-1.690;2023-03-01T02:14:03;42.82;40.03;48.10;;
41518;Laerm;27249;48.094;-1.690;2023-03-01T02:16:28;46.41;39.21;63.10;;
41518;Laerm;27249;48.094;-1.690;2023-03-01T02:18:54;43.99;40.23;57.90;;
41518;Laerm;27249;48.094;-1.690;2023-03-01T02:23:54;42.26;39.08;48.37;;
41518;Laerm;27249;48.094;-1.690;2023-03-01T02:26:40;42.25;39.46;44.42;;
41518;Laerm;27249;48.094;-1.690;2023-03-01T02:29:07;48.27;39.81;60.28;;
41518;Laerm;27249;48.094;-1.690;2023-03-01T02:31:32;49.03;40.62;59.62;;
41518;Laerm;27249;48.094;-1.690;2023-03-01T02:34:07;47.75;39.46;59.89;;
41518;Laerm;27249;48.094;-1.690;2023-03-01T02:36:35;44.39;39.70;54.92;;
41518;Laerm;27249;48.094;-1.690;2023-03-01T02:39:02;42.87;39.58;44.69;;
41518;Laerm;27249;48.094;-1.690;2023-03-01T02:41:28;44.54;40.33;56.32;;
41518;Laerm;27249;48.094;-1.690;2023-03-01T02:43:55;47.14;40.71;62.45;;
41518;Laerm;27249;48.094;-1.690;2023-03-01T02:46:22;53.71;41.89;66.72;;
41518;Laerm;27249;48.094;-1.690;2023-03-01T02:48:52;47.26;39.35;59.57;;
41518;Laerm;27249;48.094;-1.690;2023-03-01T02:54:09;48.87;40.03;65.34;;
41518;Laerm;27249;48.094;-1.690;2023-03-01T02:56:37;42.64;39.46;44.31;;
41518;Laerm;27249;48.094;-1.690;2023-03-01T02:59:02;42.69;39.81;45.20;;
41518;Laerm;27249;48.094;-1.690;2023-03-01T03:01:28;47.73;39.92;60.26;;
41518;Laerm;27249;48.094;-1.690;2023-03-01T03:04:06;43.14;40.33;48.21;;
41518;Laerm;27249;48.094;-1.690;2023-03-01T03:06:31;43.11;40.03;45.20;;
41518;Laerm;27249;48.094;-1.690;2023-03-01T03:08:57;42.97;40.62;44.87;;
41518;Laerm;27249;48.094;-1.690;2023-03-01T03:11:22;46.96;40.03;60.56;;
41518;Laerm;27249;48.094;-1.690;2023-03-01T03:13:48;43.18;39.81;50.18;;
41518;Laerm;27249;48.094;-1.690;2023-03-01T03:16:14;47.66;40.43;59.98;;
41518;Laerm;27249;48.094;-1.690;2023-03-01T03:18:39;49.45;39.92;62.90;;
41518;Laerm;27249;48.094;-1.690;2023-03-01T03:21:07;48.77;39.70;60.88;;
41518;Laerm;27249;48.094;-1.690;2023-03-01T03:23:32;49.46;40.13;65.23;;
41518;Laerm;27249;48.094;-1.690;2023-03-01T03:25:58;43.96;40.63;55.25;;
41518;Laerm;27249;48.094;-1.690;2023-03-01T03:28:23;50.83;40.71;63.39;;
41518;Laerm;27249;48.094;-1.690;2023-03-01T03:30:48;51.12;40.43;60.86;;
41518;Laerm;27249;48.094;-1.690;2023-03-01T03:33:14;50.97;41.14;62.82;;
41518;Laerm;27249;48.094;-1.690;2023-03-01T03:35:41;51.76;41.14;64.08;;
41518;Laerm;27249;48.094;-1.690;2023-03-01T03:38:07;50.74;40.89;65.22;;
41518;Laerm;27249;48.094;-1.690;2023-03-01T03:40:40;48.91;41.82;62.60;;
41518;Laerm;27249;48.094;-1.690;2023-03-01T03:43:07;54.12;41.14;64.46;;
41518;Laerm;27249;48.094;-1.690;2023-03-01T03:45:32;52.23;41.75;63.57;;
41518;Laerm;27249;48.094;-1.690;2023-03-01T03:47:59;48.59;40.23;62.46;;
41518;Laerm;27249;48.094;-1.690;2023-03-01T03:50:24;48.49;40.43;60.33;;
41518;Laerm;27249;48.094;-1.690;2023-03-01T03:52:50;45.35;40.96;60.26;;
41518;Laerm;27249;48.094;-1.690;2023-03-01T03:55:15;49.86;42.03;59.78;;
41518;Laerm;27249;48.094;-1.690;2023-03-01T03:57:44;53.60;41.75;65.73;;
41518;Laerm;27249;48.094;-1.690;2023-03-01T04:00:10;52.38;41.14;63.18;;
41518;Laerm;27249;48.094;-1.690;2023-03-01T04:02:44;51.23;41.75;61.78;;
41518;Laerm;27249;48.094;-1.690;2023-03-01T04:05:10;48.85;41.30;62.22;;
41518;Laerm;27249;48.094;-1.690;2023-03-01T04:07:36;48.35;40.62;62.22;;
41518;Laerm;27249;48.094;-1.690;2023-03-01T04:10:02;53.25;41.22;69.23;;
41518;Laerm;27249;48.094;-1.690;2023-03-01T04:12:28;49.36;41.30;59.31;;
41518;Laerm;27249;48.094;-1.690;2023-03-01T04:14:53;48.96;40.71;63.50;;
41518;Laerm;27249;48.094;-1.690;2023-03-01T04:17:18;46.41;41.22;59.13;;
41518;Laerm;27249;48.094;-1.690;2023-03-01T04:19:44;49.06;40.89;59.98;;
41518;Laerm;27249;48.094;-1.690;2023-03-01T04:22:13;52.27;41.82;64.32;;
41518;Laerm;27249;48.094;-1.690;2023-03-01T04:24:43;51.01;41.38;65.94;;
41518;Laerm;27249;48.094;-1.690;2023-03-01T04:27:08;49.75;41.30;62.92;;
41518;Laerm;27249;48.094;-1.690;2023-03-01T04:29:33;50.99;41.41;63.79;;
41518;Laerm;27249;48.094;-1.690;2023-03-01T04:31:59;51.29;41.38;62.87;;
41518;Laerm;27249;48.094;-1.690;2023-03-01T04:34:24;51.93;41.06;63.51;;
41518;Laerm;27249;48.094;-1.690;2023-03-01T04:36:51;49.52;40.89;65.01;;
41518;Laerm;27249;48.094;-1.690;2023-03-01T04:39:17;50.47;41.82;61.54;;
41518;Laerm;27249;48.094;-1.690;2023-03-01T04:41:42;49.77;41.38;60.29;;
41518;Laerm;27249;48.094;-1.690;2023-03-01T04:44:10;51.02;42.16;72.41;;
41518;Laerm;27249;48.094;-1.690;2023-03-01T04:46:35;46.06;41.38;60.26;;
41518;Laerm;27249;48.094;-1.690;2023-03-01T04:49:01;49.57;41.82;63.43;;
41518;Laerm;27249;48.094;-1.690;2023-03-01T04:51:27;46.20;41.68;56.70;;
41518;Laerm;27249;48.094;-1.690;2023-03-01T04:53:52;46.20;42.35;57.06;;
41518;Laerm;27249;48.094;-1.690;2023-03-01T04:56:17;54.18;43.24;63.94;;
41518;Laerm;27249;48.094;-1.690;2023-03-01T04:58:43;51.64;42.65;61.43;;
41518;Laerm;27249;48.094;-1.690;2023-03-01T05:01:14;51.74;43.04;64.99;;
41518;Laerm;27249;48.094;-1.690;2023-03-01T05:03:49;53.03;44.62;68.66;;
41518;Laerm;27249;48.094;-1.690;2023-03-01T05:06:15;54.92;44.19;66.29;;
41518;Laerm;27249;48.094;-1.690;2023-03-01T05:08:40;50.55;42.98;64.02;;
41518;Laerm;27249;48.094;-1.690;2023-03-01T05:11:06;47.65;41.96;57.00;;
41518;Laerm;27249;48.094;-1.690;2023-03-01T05:13:33;53.17;42.65;65.22;;
41518;Laerm;27249;48.094;-1.690;2023-03-01T05:16:00;51.66;42.53;60.10;;
41518;Laerm;27249;48.094;-1.690;2023-03-01T05:18:26;53.96;43.14;63.82;;
41518;Laerm;27249;48.094;-1.690;2023-03-01T05:21:01;55.05;43.72;74.08;;
41518;Laerm;27249;48.094;-1.690;2023-03-01T05:23:26;55.83;43.63;68.70;;
41518;Laerm;27249;48.094;-1.690;2023-03-01T05:25:51;54.42;44.35;67.41;;
41518;Laerm;27249;48.094;-1.690;2023-03-01T05:28:17;54.22;44.65;74.29;;
41518;Laerm;27249;48.094;-1.690;2023-03-01T05:30:43;55.38;44.27;70.96;;
41518;Laerm;27249;48.094;-1.690;2023-03-01T05:33:08;52.56;42.29;61.01;;
41518;Laerm;27249;48.094;-1.690;2023-03-01T05:35:40;52.68;42.53;62.99;;
41518;Laerm;27249;48.094;-1.690;2023-03-01T05:38:06;54.51;42.76;67.59;;
41518;Laerm;27249;48.094;-1.690;2023-03-01T05:40:32;54.25;43.63;73.77;;
41518;Laerm;27249;48.094;-1.690;2023-03-01T05:42:58;53.89;43.63;71.66;;
41518;Laerm;27249;48.094;-1.690;2023-03-01T05:45:24;59.13;43.58;71.93;;
41518;Laerm;27249;48.094;-1.690;2023-03-01T05:47:50;56.62;44.54;65.21;;
41518;Laerm;27249;48.094;-1.690;2023-03-01T05:52:44;54.45;42.82;67.63;;
41518;Laerm;27249;48.094;-1.690;2023-03-01T05:55:10;54.70;45.57;64.94;;
41518;Laerm;27249;48.094;-1.690;2023-03-01T05:57:35;57.09;48.98;66.63;;
41518;Laerm;27249;48.094;-1.690;2023-03-01T06:00:00;56.55;45.04;64.90;;
41518;Laerm;27249;48.094;-1.690;2023-03-01T06:02:25;54.39;45.54;64.04;;
41518;Laerm;27249;48.094;-1.690;2023-03-01T06:04:52;54.51;43.63;68.29;;
41518;Laerm;27249;48.094;-1.690;2023-03-01T06:07:17;54.15;45.20;63.62;;
41518;Laerm;27249;48.094;-1.690;2023-03-01T06:09:42;54.10;46.55;61.34;;
41518;Laerm;27249;48.094;-1.690;2023-03-01T06:12:07;55.25;46.20;62.09;;
41518;Laerm;27249;48.094;-1.690;2023-03-01T06:14:33;57.67;46.80;71.65;;
41518;Laerm;27249;48.094;-1.690;2023-03-01T06:16:58;56.89;46.48;64.34;;
41518;Laerm;27249;48.094;-1.690;2023-03-01T06:19:23;57.17;47.04;65.79;;
41518;Laerm;27249;48.094;-1.690;2023-03-01T06:21:48;57.54;47.28;63.61;;
41518;Laerm;27249;48.094;-1.690;2023-03-01T06:24:13;56.59;45.86;63.97;;
41518;Laerm;27249;48.094;-1.690;2023-03-01T06:26:39;56.82;48.80;63.69;;
41518;Laerm;27249;48.094;-1.690;2023-03-01T06:29:04;57.00;50.74;79.66;;
41518;Laerm;27249;48.094;-1.690;2023-03-01T06:31:29;59.13;52.03;69.93;;
41518;Laerm;27249;48.094;-1.690;2023-03-01T06:33:54;57.87;51.22;77.02;;
41518;Laerm;27249;48.094;-1.690;2023-03-01T06:36:20;56.67;47.06;65.53;;
41518;Laerm;27249;48.094;-1.690;2023-03-01T06:38:46;57.14;51.44;64.35;;
41518;Laerm;27249;48.094;-1.690;2023-03-01T06:41:12;58.86;48.91;72.82;;
41518;Laerm;27249;48.094;-1.690;2023-03-01T06:43:37;56.55;51.50;61.93;;
41518;Laerm;27249;48.094;-1.690;2023-03-01T06:46:05;59.20;51.60;66.46;;
41518;Laerm;27249;48.094;-1.690;2023-03-01T06:48:31;57.89;50.34;71.23;;
41518;Laerm;27249;48.094;-1.690;2023-03-01T06:50:59;58.92;50.19;69.78;;
41518;Laerm;27249;48.094;-1.690;2023-03-01T06:53:26;57.72;51.03;63.32;;
41518;Laerm;27249;48.094;-1.690;2023-03-01T06:55:57;58.35;49.72;65.95;;
41518;Laerm;27249;48.094;-1.690;2023-03-01T06:58:24;58.94;52.92;64.21;;
41518;Laerm;27249;48.094;-1.690;2023-03-01T07:00:49;58.68;49.72;67.30;;
41518;Laerm;27249;48.094;-1.690;2023-03-01T07:03:16;58.38;50.65;64.92;;
41518;Laerm;27249;48.094;-1.690;2023-03-01T07:05:41;58.79;52.37;66.35;;
41518;Laerm;27249;48.094;-1.690;2023-03-01T07:08:07;58.65;51.44;75.11;;
41518;Laerm;27249;48.094;-1.690;2023-03-01T07:10:32;58.41;51.86;67.08;;
41518;Laerm;27249;48.094;-1.690;2023-03-01T07:12:58;58.82;51.43;68.16;;
41518;Laerm;27249;48.094;-1.690;2023-03-01T07:15:23;57.82;52.33;75.38;;
41518;Laerm;27249;48.094;-1.690;2023-03-01T07:17:49;57.87;51.55;63.04;;
41518;Laerm;27249;48.094;-1.690;2023-03-01T07:20:15;59.77;53.06;65.21;;
41518;Laerm;27249;48.094;-1.690;2023-03-01T07:22:41;57.78;52.22;63.80;;
41518;Laerm;27249;48.094;-1.690;2023-03-01T07:25:07;59.06;51.56;66.91;;
41518;Laerm;27249;48.094;-1.690;2023-03-01T07:27:32;58.80;52.56;66.74;;
41518;Laerm;27249;48.094;-1.690;2023-03-01T07:29:57;58.27;50.70;66.50;;
41518;Laerm;27249;48.094;-1.690;2023-03-01T07:32:23;59.10;49.11;67.22;;
41518;Laerm;27249;48.094;-1.690;2023-03-01T07:34:48;59.03;52.87;66.24;;
41518;Laerm;27249;48.094;-1.690;2023-03-01T07:37:13;58.10;51.72;76.26;;
41518;Laerm;27249;48.094;-1.690;2023-03-01T07:39:38;58.32;53.06;69.62;;
41518;Laerm;27249;48.094;-1.690;2023-03-01T07:42:04;59.00;51.61;66.01;;
41518;Laerm;27249;48.094;-1.690;2023-03-01T07:44:29;59.06;52.67;63.53;;
41518;Laerm;27249;48.094;-1.690;2023-03-01T07:46:54;59.42;52.09;71.65;;
41518;Laerm;27249;48.094;-1.690;2023-03-01T07:49:21;59.36;51.75;66.03;;
41518;Laerm;27249;48.094;-1.690;2023-03-01T07:51:46;57.68;49.85;63.79;;
41518;Laerm;27249;48.094;-1.690;2023-03-01T07:54:12;58.84;51.12;65.03;;
41518;Laerm;27249;48.094;-1.690;2023-03-01T07:56:37;58.74;51.48;67.79;;
41518;Laerm;27249;48.094;-1.690;2023-03-01T07:59:02;58.60;52.92;67.45;;
41518;Laerm;27249;48.094;-1.690;2023-03-01T08:01:27;58.65;50.11;64.10;;
41518;Laerm;27249;48.094;-1.690;2023-03-01T08:03:52;58.25;52.12;65.97;;
41518;Laerm;27249;48.094;-1.690;2023-03-01T08:06:18;58.80;51.93;64.67;;
41518;Laerm;27249;48.094;-1.690;2023-03-01T08:08:43;57.98;51.40;65.24;;
41518;Laerm;27249;48.094;-1.690;2023-03-01T08:11:10;58.29;50.05;64.14;;
41518;Laerm;27249;48.094;-1.690;2023-03-01T08:13:35;57.54;48.80;64.44;;
41518;Laerm;27249;48.094;-1.690;2023-03-01T08:16:01;57.63;47.91;64.89;;
41518;Laerm;27249;48.094;-1.690;2023-03-01T08:18:27;58.39;51.38;65.87;;
41518;Laerm;27249;48.094;-1.690;2023-03-01T08:20:52;58.02;50.04;63.39;;
41518;Laerm;27249;48.094;-1.690;2023-03-01T08:23:17;58.39;48.98;66.39;;
41518;Laerm;27249;48.094;-1.690;2023-03-01T08:25:42;57.14;47.91;66.37;;
41518;Laerm;27249;48.094;-1.690;2023-03-01T08:28:08;57.66;52.01;63.56;;
41518;Laerm;27249;48.094;-1.690;2023-03-01T08:30:33;57.40;52.56;69.30;;
41518;Laerm;27249;48.094;-1.690;2023-03-01T08:32:59;56.71;47.54;64.30;;
41518;Laerm;27249;48.094;-1.690;2023-03-01T08:35:24;55.79;47.44;67.44;;
41518;Laerm;27249;48.094;-1.690;2023-03-01T08:37:49;58.17;49.85;64.31;;
41518;Laerm;27249;48.094;-1.690;2023-03-01T08:40:14;57.34;50.57;70.50;;
41518;Laerm;27249;48.094;-1.690;2023-03-01T08:42:40;56.39;49.95;62.81;;
41518;Laerm;27249;48.094;-1.690;2023-03-01T08:45:07;56.14;48.02;62.76;;
41518;Laerm;27249;48.094;-1.690;2023-03-01T08:47:33;59.48;51.70;70.60;;
41518;Laerm;27249;48.094;-1.690;2023-03-01T08:50:01;62.26;49.73;89.27;;
41518;Laerm;27249;48.094;-1.690;2023-03-01T08:52:26;61.26;50.07;78.91;;
41518;Laerm;27249;48.094;-1.690;2023-03-01T08:54:52;58.14;50.05;63.02;;
41518;Laerm;27249;48.094;-1.690;2023-03-01T08:57:17;58.57;51.56;63.90;;
41518;Laerm;27249;48.094;-1.690;2023-03-01T08:59:42;59.59;50.85;65.49;;
41518;Laerm;27249;48.094;-1.690;2023-03-01T09:02:12;57.84;50.74;65.73;;
41518;Laerm;27249;48.094;-1.690;2023-03-01T09:04:38;57.78;50.00;66.47;;
41518;Laerm;27249;48.094;-1.690;2023-03-01T09:07:03;56.89;48.94;68.09;;
41518;Laerm;27249;48.094;-1.690;2023-03-01T09:09:28;56.86;48.25;65.42;;
41518;Laerm;27249;48.094;-1.690;2023-03-01T09:11:53;56.51;48.85;61.77;;
41518;Laerm;27249;48.094;-1.690;2023-03-01T09:14:19;56.07;47.07;62.90;;
41518;Laerm;27249;48.094;-1.690;2023-03-01T09:16:44;55.95;46.92;63.22;;
41518;Laerm;27249;48.094;-1.690;2023-03-01T09:19:10;57.92;48.25;63.41;;
41518;Laerm;27249;48.094;-1.690;2023-03-01T09:21:36;57.43;50.65;65.54;;
41518;Laerm;27249;48.094;-1.690;2023-03-01T09:24:02;57.51;46.78;66.27;;
41518;Laerm;27249;48.094;-1.690;2023-03-01T09:26:27;56.98;48.85;73.37;;
41518;Laerm;27249;48.094;-1.690;2023-03-01T09:28:53;58.02;49.87;69.38;;
41518;Laerm;27249;48.094;-1.690;2023-03-01T09:31:20;57.18;52.56;65.14;;
41518;Laerm;27249;48.094;-1.690;2023-03-01T09:33:46;57.62;49.16;65.52;;
41518;Laerm;27249;48.094;-1.690;2023-03-01T09:36:13;57.00;50.54;70.32;;
41518;Laerm;27249;48.094;-1.690;2023-03-01T09:38:39;57.22;51.81;63.23;;
41518;Laerm;27249;48.094;-1.690;2023-03-01T09:41:43;57.56;51.98;64.49;;
41518;Laerm;27249;48.094;-1.690;2023-03-01T09:43:57;58.53;52.99;66.62;;
41518;Laerm;27249;48.094;-1.690;2023-03-01T09:46:24;57.01;48.91;64.26;;
41518;Laerm;27249;48.094;-1.690;2023-03-01T09:48:57;56.87;48.13;63.79;;
41518;Laerm;27249;48.094;-1.690;2023-03-01T09:51:30;59.98;50.04;77.33;;
41518;Laerm;27249;48.094;-1.690;2023-03-01T09:53:56;59.53;49.28;72.91;;
41518;Laerm;27249;48.094;-1.690;2023-03-01T10:10:16;57.93;48.81;65.67;;
41518;Laerm;27249;48.094;-1.690;2023-03-01T10:12:48;57.07;48.98;63.92;;
41518;Laerm;27249;48.094;-1.690;2023-03-01T10:15:15;56.77;47.42;63.65;;
41518;Laerm;27249;48.094;-1.690;2023-03-01T10:17:56;58.17;51.48;65.38;;
41518;Laerm;27249;48.094;-1.690;2023-03-01T10:22:48;57.60;50.14;64.71;;
41518;Laerm;27249;48.094;-1.690;2023-03-01T10:28:05;57.96;49.66;68.60;;
41518;Laerm;27249;48.094;-1.690;2023-03-01T10:30:37;58.52;51.38;66.46;;
41518;Laerm;27249;48.094;-1.690;2023-03-01T10:33:05;57.78;49.86;65.37;;
41518;Laerm;27249;48.094;-1.690;2023-03-01T10:35:38;59.71;51.84;73.10;;
41518;Laerm;27249;48.094;-1.690;2023-03-01T10:38:10;56.68;48.67;64.01;;
41518;Laerm;27249;48.094;-1.690;2023-03-01T10:40:36;57.02;49.23;69.40;;
41518;Laerm;27249;48.094;-1.690;2023-03-01T10:43:14;57.94;51.12;64.63;;
41518;Laerm;27249;48.094;-1.690;2023-03-01T10:45:40;58.67;52.00;65.96;;
41518;Laerm;27249;48.094;-1.690;2023-03-01T10:48:10;58.39;50.05;65.75;;
41518;Laerm;27249;48.094;-1.690;2023-03-01T10:50:37;58.16;51.39;71.75;;
41518;Laerm;27249;48.094;-1.690;2023-03-01T10:53:04;56.49;49.33;64.37;;
41518;Laerm;27249;48.094;-1.690;2023-03-01T11:00:45;57.07;51.16;65.50;;
41518;Laerm;27249;48.094;-1.690;2023-03-01T11:03:12;58.76;52.39;67.57;;
41518;Laerm;27249;48.094;-1.690;2023-03-01T11:05:50;58.00;51.60;64.01;;
41518;Laerm;27249;48.094;-1.690;2023-03-01T11:08:26;58.55;51.41;68.46;;
41518;Laerm;27249;48.094;-1.690;2023-03-01T11:10:59;59.52;53.91;68.51;;
41518;Laerm;27249;48.094;-1.690;2023-03-01T11:13:28;58.06;52.76;65.48;;
41518;Laerm;27249;48.094;-1.690;2023-03-01T11:16:00;57.78;49.51;65.12;;
41518;Laerm;27249;48.094;-1.690;2023-03-01T11:18:26;58.25;50.42;65.35;;
41518;Laerm;27249;48.094;-1.690;2023-03-01T11:20:52;57.28;50.17;64.24;;
41518;Laerm;27249;48.094;-1.690;2023-03-01T11:23:18;57.86;48.42;64.20;;
41518;Laerm;27249;48.094;-1.690;2023-03-01T11:26:05;57.58;49.60;63.79;;
41518;Laerm;27249;48.094;-1.690;2023-03-01T11:28:32;56.27;49.13;62.80;;
41518;Laerm;27249;48.094;-1.690;2023-03-01T11:31:06;57.67;51.50;64.25;;
41518;Laerm;27249;48.094;-1.690;2023-03-01T11:36:40;57.35;48.10;63.92;;
41518;Laerm;27249;48.094;-1.690;2023-03-01T11:39:51;57.00;50.25;66.66;;
41518;Laerm;27249;48.094;-1.690;2023-03-01T11:42:04;58.52;51.69;67.83;;
41518;Laerm;27249;48.094;-1.690;2023-03-01T11:44:31;57.30;48.52;67.50;;
41518;Laerm;27249;48.094;-1.690;2023-03-01T11:47:04;58.37;51.69;65.62;;
41518;Laerm;27249;48.094;-1.690;2023-03-01T11:54:50;57.48;51.00;66.76;;
41518;Laerm;27249;48.094;-1.690;2023-03-01T12:12:30;56.88;48.71;64.00;;
41518;Laerm;27249;48.094;-1.690;2023-03-01T12:17:49;58.33;50.49;70.27;;
41518;Laerm;27249;48.094;-1.690;2023-03-01T12:25:41;56.45;48.40;65.85;;
41518;Laerm;27249;48.094;-1.690;2023-03-01T12:38:42;58.84;51.91;67.19;;
41518;Laerm;27249;48.094;-1.690;2023-03-01T12:41:18;59.38;52.63;67.83;;
41518;Laerm;27249;48.094;-1.690;2023-03-01T12:43:54;56.54;49.21;64.64;;
41518;Laerm;27249;48.094;-1.690;2023-03-01T12:46:28;57.59;46.97;66.50;;
41518;Laerm;27249;48.094;-1.690;2023-03-01T12:51:24;57.96;51.13;64.73;;
41518;Laerm;27249;48.094;-1.690;2023-03-01T12:53:53;57.60;50.98;70.95;;
41518;Laerm;27249;48.094;-1.690;2023-03-01T13:02:23;60.09;50.28;81.71;;
41518;Laerm;27249;48.094;-1.690;2023-03-01T13:04:54;56.49;46.78;64.52;;
41518;Laerm;27249;48.094;-1.690;2023-03-01T13:07:30;57.66;50.48;63.10;;
41518;Laerm;27249;48.094;-1.690;2023-03-01T13:15:31;57.14;47.63;63.86;;
41518;Laerm;27249;48.094;-1.690;2023-03-01T13:18:42;56.90;50.02;66.48;;
41518;Laerm;27249;48.094;-1.690;2023-03-01T13:20:55;57.79;50.11;64.38;;
41518;Laerm;27249;48.094;-1.690;2023-03-01T13:31:09;62.12;54.24;70.90;;
41518;Laerm;27249;48.094;-1.690;2023-03-01T13:33:45;57.68;49.75;65.30;;
41518;Laerm;27249;48.094;-1.690;2023-03-01T13:36:11;56.63;47.44;63.06;;
41518;Laerm;27249;48.094;-1.690;2023-03-01T13:38:55;56.56;47.40;67.17;;
41518;Laerm;27249;48.094;-1.690;2023-03-01T13:46:48;60.61;51.63;76.74;;
41518;Laerm;27249;48.094;-1.690;2023-03-01T13:49:14;57.54;48.29;66.88;;
41518;Laerm;27249;48.094;-1.690;2023-03-01T13:51:41;56.83;50.18;64.87;;
41518;Laerm;27249;48.094;-1.690;2023-03-01T13:54:26;56.44;49.55;61.99;;
41518;Laerm;27249;48.094;-1.690;2023-03-01T13:56:53;56.14;49.47;69.15;;
41518;Laerm;27249;48.094;-1.690;2023-03-01T13:59:20;55.30;48.31;63.39;;
41518;Laerm;27249;48.094;-1.690;2023-03-01T14:01:51;56.78;50.49;62.83;;
41518;Laerm;27249;48.094;-1.690;2023-03-01T14:04:35;56.88;50.41;71.01;;
41518;Laerm;27249;48.094;-1.690;2023-03-01T14:07:18;57.10;48.64;63.96;;
41518;Laerm;27249;48.094;-1.690;2023-03-01T14:09:44;56.45;49.81;67.34;;
41518;Laerm;27249;48.094;-1.690;2023-03-01T14:22:42;60.24;51.83;72.31;;
41518;Laerm;27249;48.094;-1.690;2023-03-01T14:25:45;56.67;49.98;62.45;;
41518;Laerm;27249;48.094;-1.690;2023-03-01T14:28:04;58.19;49.47;72.10;;
41518;Laerm;27249;48.094;-1.690;2023-03-01T14:30:31;56.52;50.18;62.44;;
41518;Laerm;27249;48.094;-1.690;2023-03-01T14:33:02;56.83;50.07;65.16;;
41518;Laerm;27249;48.094;-1.690;2023-03-01T14:35:34;58.75;51.52;67.77;;
41518;Laerm;27249;48.094;-1.690;2023-03-01T14:41:00;60.12;49.30;70.68;;
41518;Laerm;27249;48.094;-1.690;2023-03-01T14:43:26;57.01;49.45;64.01;;
41518;Laerm;27249;48.094;-1.690;2023-03-01T14:45:53;57.28;47.14;65.03;;
41518;Laerm;27249;48.094;-1.690;2023-03-01T14:48:19;58.40;50.79;65.95;;
41518;Laerm;27249;48.094;-1.690;2023-03-01T14:50:44;58.55;51.33;74.13;;
41518;Laerm;27249;48.094;-1.690;2023-03-01T14:53:15;59.21;50.88;73.96;;
41518;Laerm;27249;48.094;-1.690;2023-03-01T14:55:42;60.45;49.46;77.65;;
41518;Laerm;27249;48.094;-1.690;2023-03-01T14:58:12;55.85;49.21;63.51;;
41518;Laerm;27249;48.094;-1.690;2023-03-01T15:00:38;56.70;50.13;63.96;;
41518;Laerm;27249;48.094;-1.690;2023-03-01T15:03:14;56.50;49.39;72.83;;
41518;Laerm;27249;48.094;-1.690;2023-03-01T15:05:43;56.09;50.54;64.63;;
41518;Laerm;27249;48.094;-1.690;2023-03-01T15:08:15;56.76;51.57;66.54;;
41518;Laerm;27249;48.094;-1.690;2023-03-01T15:10:54;58.12;49.60;66.19;;
41518;Laerm;27249;48.094;-1.690;2023-03-01T15:13:22;56.85;51.19;68.48;;
41518;Laerm;27249;48.094;-1.690;2023-03-01T15:15:47;57.23;50.79;65.47;;
41518;Laerm;27249;48.094;-1.690;2023-03-01T15:18:18;56.60;51.59;70.68;;
41518;Laerm;27249;48.094;-1.690;2023-03-01T15:20:45;56.42;51.95;66.73;;
41518;Laerm;27249;48.094;-1.690;2023-03-01T15:23:21;57.48;51.44;65.96;;
41518;Laerm;27249;48.094;-1.690;2023-03-01T15:25:47;58.76;51.37;70.77;;
41518;Laerm;27249;48.094;-1.690;2023-03-01T15:28:19;57.01;50.00;66.89;;
41518;Laerm;27249;48.094;-1.690;2023-03-01T15:30:45;56.88;48.58;67.92;;
41518;Laerm;27249;48.094;-1.690;2023-03-01T15:35:50;55.22;50.50;63.60;;
41518;Laerm;27249;48.094;-1.690;2023-03-01T15:38:32;56.61;49.78;67.13;;